sensor_id;sensor_type;location;lat;lon;timestamp;pressure;altitude;pressure_sealevel;temperature;humidity
23176;BME280;19910;42.652;23.332;2023-02-28T00:01:31;95078.81;;;6.74;100.00
23176;BME280;19910;42.652;23.332;2023-02-28T00:03:58;95084.50;;;6.73;100.00
23176;BME280;19910;42.652;23.332;2023-02-28T00:06:25;95083.84;;;6.81;100.00
23176;BME280;19910;42.652;23.332;2023-02-28T00:08:51;95080.88;;;6.83;100.00
23176;BME280;19910;42.652;23.332;2023-02-28T00:11:18;95079.03;;;6.78;100.00
23176;BME280;19910;42.652;23.332;2023-02-28T00:13:46;95089.66;;;6.88;100.00
23176;BME280;19910;42.652;23.332;2023-02-28T00:16:16;95080.47;;;6.89;100.00
23176;BME280;19910;42.652;23.332;2023-02-28T00:18:43;95083.63;;;6.77;100.00
23176;BME280;19910;42.652;23.332;2023-02-28T00:21:10;95099.13;;;6.67;100.00
23176;BME280;19910;42.652;23.332;2023-02-28T00:23:37;95082.03;;;6.58;100.00
23176;BME280;19910;42.652;23.332;2023-02-28T00:26:04;95093.44;;;6.50;100.00
23176;BME280;19910;42.652;23.332;2023-02-28T00:28:31;95102.63;;;6.67;100.00
23176;BME280;19910;42.652;23.332;2023-02-28T00:30:58;95082.19;;;6.66;100.00
23176;BME280;19910;42.652;23.332;2023-02-28T00:33:26;95085.06;;;6.70;100.00
23176;BME280;19910;42.652;23.332;2023-02-28T00:36:01;95079.63;;;6.75;100.00
23176;BME280;19910;42.652;23.332;2023-02-28T00:38:28;95094.09;;;6.79;100.00
23176;BME280;19910;42.652;23.332;2023-02-28T00:40:55;95096.09;;;6.55;100.00
23176;BME280;19910;42.652;23.332;2023-02-28T00:43:22;95086.91;;;6.56;100.00
23176;BME280;19910;42.652;23.332;2023-02-28T00:45:49;95088.22;;;6.39;100.00
23176;BME280;19910;42.652;23.332;2023-02-28T00:48:15;95088.75;;;6.18;100.00
23176;BME280;19910;42.652;23.332;2023-02-28T00:50:44;95084.31;;;6.08;100.00
23176;BME280;19910;42.652;23.332;2023-02-28T00:53:10;95089.16;;;6.06;100.00
23176;BME280;19910;42.652;23.332;2023-02-28T00:55:37;95094.38;;;5.97;100.00
23176;BME280;19910;42.652;23.332;2023-02-28T00:58:04;95093.41;;;5.88;100.00
23176;BME280;19910;42.652;23.332;2023-02-28T01:00:30;95094.66;;;5.96;100.00
23176;BME280;19910;42.652;23.332;2023-02-28T01:02:57;95100.38;;;5.89;100.00
23176;BME280;19910;42.652;23.332;2023-02-28T01:05:24;95083.31;;;5.75;100.00
23176;BME280;19910;42.652;23.332;2023-02-28T01:07:52;95091.69;;;5.74;100.00
23176;BME280;19910;42.652;23.332;2023-02-28T01:10:19;95091.44;;;5.70;100.00
23176;BME280;19910;42.652;23.332;2023-02-28T01:12:46;95090.16;;;5.62;100.00
23176;BME280;19910;42.652;23.332;2023-02-28T01:15:12;95092.31;;;5.60;100.00
23176;BME280;19910;42.652;23.332;2023-02-28T01:17:39;95089.88;;;5.64;100.00
23176;BME280;19910;42.652;23.332;2023-02-28T01:20:09;95095.09;;;5.55;100.00
23176;BME280;19910;42.652;23.332;2023-02-28T01:22:36;95079.53;;;5.52;100.00
23176;BME280;19910;42.652;23.332;2023-02-28T01:25:05;95084.91;;;5.52;100.00
23176;BME280;19910;42.652;23.332;2023-02-28T01:27:33;95090.94;;;5.39;100.00
23176;BME280;19910;42.652;23.332;2023-02-28T01:30:01;95087.19;;;5.35;100.00
23176;BME280;19910;42.652;23.332;2023-02-28T01:32:27;95091.75;;;5.40;100.00
23176;BME280;19910;42.652;23.332;2023-02-28T01:34:54;95076.88;;;5.47;100.00
23176;BME280;19910;42.652;23.332;2023-02-28T01:37:21;95085.59;;;5.63;100.00
23176;BME280;19910;42.652;23.332;2023-02-28T01:39:48;95090.22;;;5.57;100.00
23176;BME280;19910;42.652;23.332;2023-02-28T01:42:16;95080.81;;;5.60;100.00
23176;BME280;19910;42.652;23.332;2023-02-28T01:45:14;95087.31;;;5.78;100.00
23176;BME280;19910;42.652;23.332;2023-02-28T01:47:45;95087.78;;;5.85;100.00
23176;BME280;19910;42.652;23.332;2023-02-28T01:50:14;95094.84;;;5.76;100.00
23176;BME280;19910;42.652;23.332;2023-02-28T01:52:43;95095.44;;;5.72;100.00
23176;BME280;19910;42.652;23.332;2023-02-28T01:55:12;95093.25;;;5.75;100.00
23176;BME280;19910;42.652;23.332;2023-02-28T01:57:45;95095.88;;;5.80;100.00
23176;BME280;19910;42.652;23.332;2023-02-28T02:00:14;95097.69;;;5.89;100.00
23176;BME280;19910;42.652;23.332;2023-02-28T02:02:43;95098.97;;;5.97;100.00
23176;BME280;19910;42.652;23.332;2023-02-28T02:05:15;95093.50;;;6.02;100.00
23176;BME280;19910;42.652;23.332;2023-02-28T02:07:44;95087.00;;;6.08;100.00
23176;BME280;19910;42.652;23.332;2023-02-28T02:10:13;95092.81;;;6.15;100.00
23176;BME280;19910;42.652;23.332;2023-02-28T02:13:05;95080.66;;;6.41;100.00
23176;BME280;19910;42.652;23.332;2023-02-28T02:15:39;95090.16;;;6.34;100.00
23176;BME280;19910;42.652;23.332;2023-02-28T02:18:14;95077.88;;;6.47;100.00
23176;BME280;19910;42.652;23.332;2023-02-28T02:21:13;95082.53;;;6.41;100.00
23176;BME280;19910;42.652;23.332;2023-02-28T02:24:07;95085.38;;;6.50;100.00
23176;BME280;19910;42.652;23.332;2023-02-28T02:26:54;95075.34;;;6.55;100.00
23176;BME280;19910;42.652;23.332;2023-02-28T02:32:31;95078.75;;;6.80;100.00
23176;BME280;19910;42.652;23.332;2023-02-28T02:35:12;95074.25;;;6.75;100.00
23176;BME280;19910;42.652;23.332;2023-02-28T02:37:43;95084.44;;;6.40;100.00
23176;BME280;19910;42.652;23.332;2023-02-28T02:40:16;95080.78;;;6.31;100.00
23176;BME280;19910;42.652;23.332;2023-02-28T02:42:50;95091.47;;;6.36;100.00
23176;BME280;19910;42.652;23.332;2023-02-28T02:45:22;95089.06;;;6.35;100.00
23176;BME280;19910;42.652;23.332;2023-02-28T02:47:50;95082.59;;;6.36;100.00
23176;BME280;19910;42.652;23.332;2023-02-28T02:50:22;95088.63;;;6.47;100.00
23176;BME280;19910;42.652;23.332;2023-02-28T02:52:54;95090.91;;;6.39;100.00
23176;BME280;19910;42.652;23.332;2023-02-28T02:55:23;95097.81;;;6.46;100.00
23176;BME280;19910;42.652;23.332;2023-02-28T02:57:52;95091.03;;;6.48;100.00
23176;BME280;19910;42.652;23.332;2023-02-28T03:00:26;95101.75;;;6.72;100.00
23176;BME280;19910;42.652;23.332;2023-02-28T03:02:54;95103.22;;;6.83;100.00
23176;BME280;19910;42.652;23.332;2023-02-28T03:05:26;95108.22;;;6.90;100.00
23176;BME280;19910;42.652;23.332;2023-02-28T03:07:54;95123.06;;;6.68;100.00
23176;BME280;19910;42.652;23.332;2023-02-28T03:10:36;95122.69;;;6.75;100.00
23176;BME280;19910;42.652;23.332;2023-02-28T03:13:27;95121.47;;;6.67;100.00
23176;BME280;19910;42.652;23.332;2023-02-28T03:16:22;95124.16;;;6.86;100.00
23176;BME280;19910;42.652;23.332;2023-02-28T03:19:02;95128.38;;;6.92;100.00
23176;BME280;19910;42.652;23.332;2023-02-28T03:21:34;95135.06;;;6.76;100.00
23176;BME280;19910;42.652;23.332;2023-02-28T03:24:05;95137.41;;;6.64;100.00
23176;BME280;19910;42.652;23.332;2023-02-28T03:26:37;95130.25;;;6.73;100.00
23176;BME280;19910;42.652;23.332;2023-02-28T03:29:12;95131.94;;;6.88;100.00
23176;BME280;19910;42.652;23.332;2023-02-28T03:31:45;95141.75;;;6.97;100.00
23176;BME280;19910;42.652;23.332;2023-02-28T03:34:16;95136.22;;;6.70;100.00
23176;BME280;19910;42.652;23.332;2023-02-28T03:36:48;95148.16;;;6.64;100.00
23176;BME280;19910;42.652;23.332;2023-02-28T03:39:21;95146.00;;;6.66;100.00
23176;BME280;19910;42.652;23.332;2023-02-28T03:41:54;95141.88;;;6.50;100.00
23176;BME280;19910;42.652;23.332;2023-02-28T03:44:25;95150.72;;;6.31;100.00
23176;BME280;19910;42.652;23.332;2023-02-28T03:46:57;95140.31;;;6.25;100.00
23176;BME280;19910;42.652;23.332;2023-02-28T03:49:30;95150.84;;;6.21;100.00
23176;BME280;19910;42.652;23.332;2023-02-28T03:52:02;95150.41;;;6.14;100.00
23176;BME280;19910;42.652;23.332;2023-02-28T03:54:33;95149.50;;;6.00;100.00
23176;BME280;19910;42.652;23.332;2023-02-28T03:57:05;95148.00;;;6.13;100.00
23176;BME280;19910;42.652;23.332;2023-02-28T03:59:39;95154.72;;;5.86;100.00
23176;BME280;19910;42.652;23.332;2023-02-28T04:02:08;95157.69;;;5.85;100.00
23176;BME280;19910;42.652;23.332;2023-02-28T04:04:35;95152.22;;;5.66;100.00
23176;BME280;19910;42.652;23.332;2023-02-28T04:07:05;95149.94;;;5.49;100.00
23176;BME280;19910;42.652;23.332;2023-02-28T04:09:32;95155.25;;;5.59;100.00
23176;BME280;19910;42.652;23.332;2023-02-28T04:12:00;95149.13;;;5.49;100.00
23176;BME280;19910;42.652;23.332;2023-02-28T04:14:26;95147.75;;;5.56;100.00
23176;BME280;19910;42.652;23.332;2023-02-28T04:16:53;95149.38;;;5.52;100.00
23176;BME280;19910;42.652;23.332;2023-02-28T04:19:20;95153.03;;;5.61;100.00
23176;BME280;19910;42.652;23.332;2023-02-28T04:21:49;95149.06;;;5.59;100.00
23176;BME280;19910;42.652;23.332;2023-02-28T04:24:19;95146.97;;;5.80;100.00
23176;BME280;19910;42.652;23.332;2023-02-28T04:26:47;95146.16;;;5.50;100.00
23176;BME280;19910;42.652;23.332;2023-02-28T04:29:19;95151.03;;;5.48;100.00
23176;BME280;19910;42.652;23.332;2023-02-28T04:31:46;95158.63;;;5.41;100.00
23176;BME280;19910;42.652;23.332;2023-02-28T04:34:13;95152.53;;;5.30;100.00
23176;BME280;19910;42.652;23.332;2023-02-28T04:36:40;95143.06;;;5.38;100.00
23176;BME280;19910;42.652;23.332;2023-02-28T04:39:07;95153.16;;;5.51;100.00
23176;BME280;19910;42.652;23.332;2023-02-28T04:41:36;95162.28;;;5.50;100.00
23176;BME280;19910;42.652;23.332;2023-02-28T04:44:03;95172.56;;;5.43;100.00
23176;BME280;19910;42.652;23.332;2023-02-28T04:46:30;95172.50;;;5.48;100.00
23176;BME280;19910;42.652;23.332;2023-02-28T04:48:57;95172.75;;;5.52;100.00
23176;BME280;19910;42.652;23.332;2023-02-28T04:51:24;95179.91;;;5.61;100.00
23176;BME280;19910;42.652;23.332;2023-02-28T04:53:53;95176.28;;;5.47;100.00
23176;BME280;19910;42.652;23.332;2023-02-28T04:56:20;95182.31;;;5.34;100.00
23176;BME280;19910;42.652;23.332;2023-02-28T04:58:49;95178.81;;;5.33;100.00
23176;BME280;19910;42.652;23.332;2023-02-28T05:01:21;95184.53;;;5.27;100.00
23176;BME280;19910;42.652;23.332;2023-02-28T05:03:49;95183.16;;;5.29;100.00
23176;BME280;19910;42.652;23.332;2023-02-28T05:06:16;95184.44;;;5.37;100.00
23176;BME280;19910;42.652;23.332;2023-02-28T05:08:43;95172.47;;;5.53;100.00
23176;BME280;19910;42.652;23.332;2023-02-28T05:11:15;95188.56;;;5.58;100.00
23176;BME280;19910;42.652;23.332;2023-02-28T05:13:42;95187.56;;;5.49;100.00
23176;BME280;19910;42.652;23.332;2023-02-28T05:16:10;95183.94;;;5.64;100.00
23176;BME280;19910;42.652;23.332;2023-02-28T05:18:37;95186.25;;;5.76;100.00
23176;BME280;19910;42.652;23.332;2023-02-28T05:21:04;95185.78;;;5.68;100.00
23176;BME280;19910;42.652;23.332;2023-02-28T05:23:31;95181.53;;;5.62;100.00
23176;BME280;19910;42.652;23.332;2023-02-28T05:25:58;95194.44;;;5.60;100.00
23176;BME280;19910;42.652;23.332;2023-02-28T05:28:25;95185.44;;;5.75;100.00
23176;BME280;19910;42.652;23.332;2023-02-28T05:30:52;95203.50;;;5.69;100.00
23176;BME280;19910;42.652;23.332;2023-02-28T05:33:20;95201.94;;;5.63;100.00
23176;BME280;19910;42.652;23.332;2023-02-28T05:35:46;95204.16;;;5.90;100.00
23176;BME280;19910;42.652;23.332;2023-02-28T05:38:19;95204.94;;;5.91;100.00
23176;BME280;19910;42.652;23.332;2023-02-28T05:40:46;95215.69;;;5.91;100.00
23176;BME280;19910;42.652;23.332;2023-02-28T05:43:12;95210.03;;;6.21;100.00
23176;BME280;19910;42.652;23.332;2023-02-28T05:45:39;95207.16;;;6.36;100.00
23176;BME280;19910;42.652;23.332;2023-02-28T05:48:07;95215.28;;;6.31;100.00
23176;BME280;19910;42.652;23.332;2023-02-28T05:50:35;95215.88;;;6.28;100.00
23176;BME280;19910;42.652;23.332;2023-02-28T05:53:03;95219.44;;;5.95;100.00
23176;BME280;19910;42.652;23.332;2023-02-28T05:55:30;95221.03;;;5.96;100.00
23176;BME280;19910;42.652;23.332;2023-02-28T05:57:56;95230.72;;;5.97;100.00
23176;BME280;19910;42.652;23.332;2023-02-28T06:00:24;95224.28;;;5.93;100.00
23176;BME280;19910;42.652;23.332;2023-02-28T06:02:51;95221.41;;;5.84;100.00
23176;BME280;19910;42.652;23.332;2023-02-28T06:05:22;95217.94;;;5.79;100.00
23176;BME280;19910;42.652;23.332;2023-02-28T06:07:50;95217.19;;;6.02;100.00
23176;BME280;19910;42.652;23.332;2023-02-28T06:10:17;95212.13;;;6.00;100.00
23176;BME280;19910;42.652;23.332;2023-02-28T06:12:45;95215.66;;;5.96;100.00
23176;BME280;19910;42.652;23.332;2023-02-28T06:15:13;95213.78;;;5.96;100.00
23176;BME280;19910;42.652;23.332;2023-02-28T06:17:40;95212.66;;;6.26;100.00
23176;BME280;19910;42.652;23.332;2023-02-28T06:20:08;95214.38;;;6.17;100.00
23176;BME280;19910;42.652;23.332;2023-02-28T06:22:36;95215.19;;;6.41;100.00
23176;BME280;19910;42.652;23.332;2023-02-28T06:25:05;95215.13;;;6.47;100.00
23176;BME280;19910;42.652;23.332;2023-02-28T06:27:33;95209.34;;;6.34;100.00
23176;BME280;19910;42.652;23.332;2023-02-28T06:30:00;95205.97;;;6.48;100.00
23176;BME280;19910;42.652;23.332;2023-02-28T06:32:29;95220.50;;;6.89;100.00
23176;BME280;19910;42.652;23.332;2023-02-28T06:34:57;95219.94;;;6.92;100.00
23176;BME280;19910;42.652;23.332;2023-02-28T06:37:25;95232.25;;;6.98;100.00
23176;BME280;19910;42.652;23.332;2023-02-28T06:39:53;95220.91;;;7.20;100.00
23176;BME280;19910;42.652;23.332;2023-02-28T06:42:22;95235.09;;;7.26;100.00
23176;BME280;19910;42.652;23.332;2023-02-28T06:44:50;95228.59;;;7.27;100.00
23176;BME280;19910;42.652;23.332;2023-02-28T06:47:17;95229.13;;;7.29;100.00
23176;BME280;19910;42.652;23.332;2023-02-28T06:49:43;95237.50;;;7.08;100.00
23176;BME280;19910;42.652;23.332;2023-02-28T06:52:11;95241.97;;;6.75;100.00
23176;BME280;19910;42.652;23.332;2023-02-28T06:54:37;95235.31;;;6.92;100.00
23176;BME280;19910;42.652;23.332;2023-02-28T06:57:04;95239.13;;;6.86;100.00
23176;BME280;19910;42.652;23.332;2023-02-28T06:59:32;95240.44;;;6.69;100.00
23176;BME280;19910;42.652;23.332;2023-02-28T07:02:00;95245.50;;;6.71;100.00
23176;BME280;19910;42.652;23.332;2023-02-28T07:04:27;95240.72;;;6.68;100.00
23176;BME280;19910;42.652;23.332;2023-02-28T07:06:55;95240.13;;;6.71;100.00
23176;BME280;19910;42.652;23.332;2023-02-28T07:09:22;95231.44;;;6.55;100.00
23176;BME280;19910;42.652;23.332;2023-02-28T07:11:49;95241.22;;;6.70;100.00
23176;BME280;19910;42.652;23.332;2023-02-28T07:14:16;95236.81;;;6.79;100.00
23176;BME280;19910;42.652;23.332;2023-02-28T07:16:44;95230.53;;;6.65;100.00
23176;BME280;19910;42.652;23.332;2023-02-28T07:19:11;95237.56;;;6.61;100.00
23176;BME280;19910;42.652;23.332;2023-02-28T07:21:38;95239.69;;;6.64;100.00
23176;BME280;19910;42.652;23.332;2023-02-28T07:24:05;95243.91;;;6.70;100.00
23176;BME280;19910;42.652;23.332;2023-02-28T07:26:32;95248.16;;;6.76;100.00
23176;BME280;19910;42.652;23.332;2023-02-28T07:29:01;95243.47;;;7.05;100.00
23176;BME280;19910;42.652;23.332;2023-02-28T07:31:28;95239.75;;;7.39;100.00
23176;BME280;19910;42.652;23.332;2023-02-28T07:33:56;95242.09;;;7.45;100.00
23176;BME280;19910;42.652;23.332;2023-02-28T07:36:25;95238.53;;;7.82;100.00
23176;BME280;19910;42.652;23.332;2023-02-28T07:38:52;95235.50;;;8.03;100.00
23176;BME280;19910;42.652;23.332;2023-02-28T07:41:20;95236.03;;;8.05;100.00
23176;BME280;19910;42.652;23.332;2023-02-28T07:43:47;95241.81;;;8.12;99.79
23176;BME280;19910;42.652;23.332;2023-02-28T07:46:16;95242.13;;;8.24;98.05
23176;BME280;19910;42.652;23.332;2023-02-28T07:48:44;95242.72;;;8.53;97.81
23176;BME280;19910;42.652;23.332;2023-02-28T07:51:12;95233.09;;;8.75;97.96
23176;BME280;19910;42.652;23.332;2023-02-28T07:53:39;95234.91;;;8.66;95.79
23176;BME280;19910;42.652;23.332;2023-02-28T07:56:07;95236.91;;;9.01;95.02
23176;BME280;19910;42.652;23.332;2023-02-28T07:58:33;95225.31;;;8.87;94.15
23176;BME280;19910;42.652;23.332;2023-02-28T08:01:05;95228.31;;;8.58;94.96
23176;BME280;19910;42.652;23.332;2023-02-28T08:03:33;95223.72;;;8.72;97.49
23176;BME280;19910;42.652;23.332;2023-02-28T08:05:59;95233.19;;;9.47;97.25
23176;BME280;19910;42.652;23.332;2023-02-28T08:08:29;95209.66;;;10.45;99.77
23176;BME280;19910;42.652;23.332;2023-02-28T08:10:58;95223.34;;;9.51;92.93
23176;BME280;19910;42.652;23.332;2023-02-28T08:13:26;95223.84;;;9.53;93.96
23176;BME280;19910;42.652;23.332;2023-02-28T08:15:55;95218.94;;;9.55;93.06
23176;BME280;19910;42.652;23.332;2023-02-28T08:18:23;95223.66;;;9.13;92.80
23176;BME280;19910;42.652;23.332;2023-02-28T08:20:50;95225.44;;;9.18;93.48
23176;BME280;19910;42.652;23.332;2023-02-28T08:23:16;95233.00;;;9.30;93.68
23176;BME280;19910;42.652;23.332;2023-02-28T08:25:45;95230.81;;;9.32;92.82
23176;BME280;19910;42.652;23.332;2023-02-28T08:28:11;95231.63;;;9.32;92.99
23176;BME280;19910;42.652;23.332;2023-02-28T08:30:38;95229.97;;;9.45;93.53
23176;BME280;19910;42.652;23.332;2023-02-28T08:33:06;95234.63;;;9.31;93.49
23176;BME280;19910;42.652;23.332;2023-02-28T08:35:35;95226.25;;;9.05;94.67
23176;BME280;19910;42.652;23.332;2023-02-28T08:38:02;95238.91;;;8.82;95.50
23176;BME280;19910;42.652;23.332;2023-02-28T08:40:28;95246.56;;;9.16;95.20
23176;BME280;19910;42.652;23.332;2023-02-28T08:42:57;95241.91;;;8.94;95.98
23176;BME280;19910;42.652;23.332;2023-02-28T08:45:23;95241.63;;;9.32;95.27
23176;BME280;19910;42.652;23.332;2023-02-28T08:47:50;95232.97;;;9.07;95.75
23176;BME280;19910;42.652;23.332;2023-02-28T08:50:18;95233.50;;;9.32;95.66
23176;BME280;19910;42.652;23.332;2023-02-28T08:52:44;95224.09;;;9.65;93.87
23176;BME280;19910;42.652;23.332;2023-02-28T08:55:11;95228.88;;;9.10;95.15
23176;BME280;19910;42.652;23.332;2023-02-28T08:57:38;95248.25;;;9.25;95.06
23176;BME280;19910;42.652;23.332;2023-02-28T09:00:07;95245.88;;;9.10;95.86
23176;BME280;19910;42.652;23.332;2023-02-28T09:02:35;95246.75;;;9.19;95.42
23176;BME280;19910;42.652;23.332;2023-02-28T09:05:02;95256.19;;;9.08;94.92
23176;BME280;19910;42.652;23.332;2023-02-28T09:07:29;95237.50;;;8.98;95.33
23176;BME280;19910;42.652;23.332;2023-02-28T09:09:56;95244.88;;;9.06;95.66
23176;BME280;19910;42.652;23.332;2023-02-28T09:12:24;95242.44;;;9.32;95.00
23176;BME280;19910;42.652;23.332;2023-02-28T09:14:52;95237.22;;;9.36;94.24
23176;BME280;19910;42.652;23.332;2023-02-28T09:17:20;95234.78;;;9.48;94.83
23176;BME280;19910;42.652;23.332;2023-02-28T09:19:48;95232.88;;;9.71;93.45
23176;BME280;19910;42.652;23.332;2023-02-28T09:22:14;95230.13;;;9.62;92.50
23176;BME280;19910;42.652;23.332;2023-02-28T09:24:42;95234.38;;;9.54;91.99
23176;BME280;19910;42.652;23.332;2023-02-28T09:27:10;95238.34;;;9.57;92.76
23176;BME280;19910;42.652;23.332;2023-02-28T09:29:37;95222.63;;;10.04;92.15
23176;BME280;19910;42.652;23.332;2023-02-28T09:32:04;95224.56;;;10.34;90.34
23176;BME280;19910;42.652;23.332;2023-02-28T09:34:34;95216.16;;;10.75;88.24
23176;BME280;19910;42.652;23.332;2023-02-28T09:37:02;95219.28;;;10.68;88.50
23176;BME280;19910;42.652;23.332;2023-02-28T09:39:28;95219.38;;;10.46;88.42
23176;BME280;19910;42.652;23.332;2023-02-28T09:41:56;95224.13;;;10.41;89.55
23176;BME280;19910;42.652;23.332;2023-02-28T09:44:28;95217.66;;;10.50;89.33
23176;BME280;19910;42.652;23.332;2023-02-28T09:46:59;95216.75;;;10.32;89.66
23176;BME280;19910;42.652;23.332;2023-02-28T09:49:34;95212.69;;;10.52;89.43
23176;BME280;19910;42.652;23.332;2023-02-28T09:52:07;95215.06;;;10.45;89.52
23176;BME280;19910;42.652;23.332;2023-02-28T09:54:36;95209.66;;;10.45;89.92
23176;BME280;19910;42.652;23.332;2023-02-28T09:57:07;95207.97;;;10.66;88.65
23176;BME280;19910;42.652;23.332;2023-02-28T09:59:42;95205.31;;;10.84;87.31
23176;BME280;19910;42.652;23.332;2023-02-28T10:05:06;95198.28;;;10.65;86.81
23176;BME280;19910;42.652;23.332;2023-02-28T10:07:48;95196.03;;;10.67;86.88
23176;BME280;19910;42.652;23.332;2023-02-28T10:10:25;95197.91;;;10.58;87.44
23176;BME280;19910;42.652;23.332;2023-02-28T10:12:57;95191.56;;;10.72;87.69
23176;BME280;19910;42.652;23.332;2023-02-28T10:15:29;95192.09;;;10.82;87.25
23176;BME280;19910;42.652;23.332;2023-02-28T10:17:58;95180.75;;;10.72;86.92
23176;BME280;19910;42.652;23.332;2023-02-28T10:20:30;95191.00;;;10.92;86.59
23176;BME280;19910;42.652;23.332;2023-02-28T10:23:04;95182.56;;;11.02;86.40
23176;BME280;19910;42.652;23.332;2023-02-28T10:25:36;95192.56;;;10.84;85.24
23176;BME280;19910;42.652;23.332;2023-02-28T10:28:10;95183.47;;;10.80;85.78
23176;BME280;19910;42.652;23.332;2023-02-28T10:30:40;95183.38;;;11.11;84.36
23176;BME280;19910;42.652;23.332;2023-02-28T10:33:15;95184.13;;;10.86;85.05
23176;BME280;19910;42.652;23.332;2023-02-28T10:35:46;95172.50;;;10.94;84.02
23176;BME280;19910;42.652;23.332;2023-02-28T10:38:17;95168.06;;;11.15;83.72
23176;BME280;19910;42.652;23.332;2023-02-28T10:40:44;95158.66;;;11.56;83.12
23176;BME280;19910;42.652;23.332;2023-02-28T10:43:20;95160.25;;;11.39;82.39
23176;BME280;19910;42.652;23.332;2023-02-28T10:45:59;95146.38;;;11.15;82.52
23176;BME280;19910;42.652;23.332;2023-02-28T10:48:33;95158.31;;;10.97;83.17
23176;BME280;19910;42.652;23.332;2023-02-28T10:51:02;95140.16;;;11.06;83.41
23176;BME280;19910;42.652;23.332;2023-02-28T10:53:33;95142.22;;;11.26;83.06
23176;BME280;19910;42.652;23.332;2023-02-28T10:56:02;95135.53;;;11.50;82.04
23176;BME280;19910;42.652;23.332;2023-02-28T10:58:31;95131.69;;;11.51;81.43
23176;BME280;19910;42.652;23.332;2023-02-28T11:00:59;95128.53;;;11.31;81.41
23176;BME280;19910;42.652;23.332;2023-02-28T11:03:32;95128.69;;;11.26;82.09
23176;BME280;19910;42.652;23.332;2023-02-28T11:06:06;95118.94;;;11.43;82.41
23176;BME280;19910;42.652;23.332;2023-02-28T11:08:34;95117.97;;;11.38;82.37
23176;BME280;19910;42.652;23.332;2023-02-28T11:11:04;95106.19;;;11.17;82.92
23176;BME280;19910;42.652;23.332;2023-02-28T11:13:35;95108.88;;;11.34;83.00
23176;BME280;19910;42.652;23.332;2023-02-28T11:16:05;95107.13;;;11.38;81.99
23176;BME280;19910;42.652;23.332;2023-02-28T11:18:38;95115.75;;;11.40;81.16
23176;BME280;19910;42.652;23.332;2023-02-28T11:21:08;95099.47;;;11.40;81.16
23176;BME280;19910;42.652;23.332;2023-02-28T11:23:36;95106.81;;;11.14;82.64
23176;BME280;19910;42.652;23.332;2023-02-28T11:26:06;95101.38;;;10.97;83.68
23176;BME280;19910;42.652;23.332;2023-02-28T11:28:37;95107.94;;;11.04;83.67
23176;BME280;19910;42.652;23.332;2023-02-28T11:31:14;95103.31;;;11.05;83.69
23176;BME280;19910;42.652;23.332;2023-02-28T11:33:43;95113.50;;;11.08;82.58
23176;BME280;19910;42.652;23.332;2023-02-28T11:36:14;95106.19;;;11.17;81.68
23176;BME280;19910;42.652;23.332;2023-02-28T11:38:41;95107.28;;;11.25;82.00
23176;BME280;19910;42.652;23.332;2023-02-28T11:41:19;95102.19;;;10.97;84.01
23176;BME280;19910;42.652;23.332;2023-02-28T11:44:05;95093.41;;;11.09;83.66
23176;BME280;19910;42.652;23.332;2023-02-28T11:46:42;95111.09;;;10.81;83.61
23176;BME280;19910;42.652;23.332;2023-02-28T11:49:25;95084.97;;;11.02;83.65
23176;BME280;19910;42.652;23.332;2023-02-28T11:52:01;95096.13;;;11.44;83.14
23176;BME280;19910;42.652;23.332;2023-02-28T11:54:48;95079.22;;;11.47;81.45
23176;BME280;19910;42.652;23.332;2023-02-28T11:57:35;95092.78;;;11.29;82.98
23176;BME280;19910;42.652;23.332;2023-02-28T12:00:15;95084.78;;;11.59;82.32
23176;BME280;19910;42.652;23.332;2023-02-28T12:02:57;95088.75;;;11.61;81.65
23176;BME280;19910;42.652;23.332;2023-02-28T12:05:33;95092.44;;;11.48;81.69
23176;BME280;19910;42.652;23.332;2023-02-28T12:08:18;95095.16;;;11.39;81.18
23176;BME280;19910;42.652;23.332;2023-02-28T12:11:00;95095.97;;;11.14;81.64
23176;BME280;19910;42.652;23.332;2023-02-28T12:13:38;95100.78;;;11.17;82.03
23176;BME280;19910;42.652;23.332;2023-02-28T12:16:41;95082.88;;;11.25;82.04
23176;BME280;19910;42.652;23.332;2023-02-28T12:19:17;95082.41;;;11.23;81.48
23176;BME280;19910;42.652;23.332;2023-02-28T12:22:03;95076.81;;;11.36;81.31
23176;BME280;19910;42.652;23.332;2023-02-28T12:27:35;95082.84;;;11.59;80.17
23176;BME280;19910;42.652;23.332;2023-02-28T12:30:08;95089.09;;;11.25;80.92
23176;BME280;19910;42.652;23.332;2023-02-28T12:32:42;95084.34;;;11.31;80.92
23176;BME280;19910;42.652;23.332;2023-02-28T12:35:13;95085.94;;;11.32;81.44
23176;BME280;19910;42.652;23.332;2023-02-28T12:37:43;95091.81;;;11.43;81.43
23176;BME280;19910;42.652;23.332;2023-02-28T12:40:16;95078.22;;;11.60;80.77
23176;BME280;19910;42.652;23.332;2023-02-28T12:42:46;95084.63;;;11.47;80.18
23176;BME280;19910;42.652;23.332;2023-02-28T12:45:20;95088.63;;;10.89;82.38
23176;BME280;19910;42.652;23.332;2023-02-28T12:47:52;95079.06;;;10.83;82.86
23176;BME280;19910;42.652;23.332;2023-02-28T12:50:22;95084.16;;;11.10;81.96
23176;BME280;19910;42.652;23.332;2023-02-28T12:52:54;95086.56;;;10.86;81.84
23176;BME280;19910;42.652;23.332;2023-02-28T12:55:29;95079.06;;;10.83;81.99
23176;BME280;19910;42.652;23.332;2023-02-28T12:58:04;95090.06;;;10.78;82.08
23176;BME280;19910;42.652;23.332;2023-02-28T13:00:36;95075.88;;;10.98;81.76
23176;BME280;19910;42.652;23.332;2023-02-28T13:03:36;95072.06;;;10.99;81.33
23176;BME280;19910;42.652;23.332;2023-02-28T13:06:18;95083.19;;;11.23;81.02
23176;BME280;19910;42.652;23.332;2023-02-28T13:09:02;95078.09;;;11.48;80.54
23176;BME280;19910;42.652;23.332;2023-02-28T13:11:33;95086.06;;;11.35;80.34
23176;BME280;19910;42.652;23.332;2023-02-28T13:14:15;95082.28;;;11.02;81.36
23176;BME280;19910;42.652;23.332;2023-02-28T13:16:56;95069.81;;;10.84;81.68